HTIR/IRI METAR and TAF weather

Enter ICAO airport designator
Station Type Date Time Source
HTIR METAR 2020/09/22 22:00 UTC NOAA

HTIR 222200Z 26005KT 9999 SKC 17/13 Q1022


Station Type Date Time Source
HTIR Decoded METAR 2020/09/22 22:00 UTC NOAA

Iringa, Tanzania (HTIR) 07-40S 035-45E 1428M
Sep 22, 2020 - 06:00 PM EDT / 2020.09.22 2200 UTC
Wind: from the W (260 degrees) at 6 MPH (5 KT):0
Visibility: greater than 7 mile(s):0
Sky conditions: clear
Temperature: 62 F (17 C)
Dew Point: 55 F (13 C)
Relative Humidity: 77%
Pressure (altimeter): 30.18 in. Hg (1022 hPa)
ob: HTIR 222200Z 26005KT 9999 SKC 17/13 Q1022
cycle: 22

Station Type Date Time Source
HTIR TAF UTC NOAA

Error!

Example: see airport list